sensor_id;sensor_type;location;lat;lon;timestamp;temperature;humidity
68177;DHT22;56478;50.982;7.032;2022-08-19T00:02:03;20.82;71.99
68177;DHT22;56478;50.982;7.032;2022-08-19T00:04:30;20.83;71.84
68177;DHT22;56478;50.982;7.032;2022-08-19T00:06:55;20.77;72.20
68177;DHT22;56478;50.982;7.032;2022-08-19T00:09:21;20.76;71.80
68177;DHT22;56478;50.982;7.032;2022-08-19T00:11:48;20.79;71.50
68177;DHT22;56478;50.982;7.032;2022-08-19T00:14:14;20.77;71.66
68177;DHT22;56478;50.982;7.032;2022-08-19T00:16:41;20.71;71.83
68177;DHT22;56478;50.982;7.032;2022-08-19T00:19:06;20.68;72.13
68177;DHT22;56478;50.982;7.032;2022-08-19T00:21:32;20.65;72.21
68177;DHT22;56478;50.982;7.032;2022-08-19T00:23:57;20.59;72.33
68177;DHT22;56478;50.982;7.032;2022-08-19T00:26:24;20.55;72.16
68177;DHT22;56478;50.982;7.032;2022-08-19T00:28:49;20.56;71.90
68177;DHT22;56478;50.982;7.032;2022-08-19T00:31:15;20.53;72.26
68177;DHT22;56478;50.982;7.032;2022-08-19T00:33:41;20.49;72.23
68177;DHT22;56478;50.982;7.032;2022-08-19T00:36:07;20.44;72.19
68177;DHT22;56478;50.982;7.032;2022-08-19T00:38:34;20.45;72.14
68177;DHT22;56478;50.982;7.032;2022-08-19T00:40:59;20.38;72.40
68177;DHT22;56478;50.982;7.032;2022-08-19T00:43:26;20.38;72.42
68177;DHT22;56478;50.982;7.032;2022-08-19T00:45:51;20.32;72.43
68177;DHT22;56478;50.982;7.032;2022-08-19T00:48:17;20.34;72.55
68177;DHT22;56478;50.982;7.032;2022-08-19T00:50:43;20.28;72.73
68177;DHT22;56478;50.982;7.032;2022-08-19T00:53:09;20.24;72.84
68177;DHT22;56478;50.982;7.032;2022-08-19T00:55:35;20.22;72.84
68177;DHT22;56478;50.982;7.032;2022-08-19T00:58:04;20.25;72.65
68177;DHT22;56478;50.982;7.032;2022-08-19T01:00:32;20.22;72.74
68177;DHT22;56478;50.982;7.032;2022-08-19T01:03:00;20.18;72.89
68177;DHT22;56478;50.982;7.032;2022-08-19T01:05:26;20.13;73.05
68177;DHT22;56478;50.982;7.032;2022-08-19T01:07:52;20.14;72.65
68177;DHT22;56478;50.982;7.032;2022-08-19T01:10:19;20.13;72.94
68177;DHT22;56478;50.982;7.032;2022-08-19T01:12:46;20.09;73.56
68177;DHT22;56478;50.982;7.032;2022-08-19T01:15:12;20.06;73.44
68177;DHT22;56478;50.982;7.032;2022-08-19T01:17:39;20.04;73.39
68177;DHT22;56478;50.982;7.032;2022-08-19T01:20:05;19.98;73.41
68177;DHT22;56478;50.982;7.032;2022-08-19T01:22:52;19.96;73.68
68177;DHT22;56478;50.982;7.032;2022-08-19T01:25:20;19.89;74.05
68177;DHT22;56478;50.982;7.032;2022-08-19T01:27:47;19.90;73.92
68177;DHT22;56478;50.982;7.032;2022-08-19T01:30:18;19.89;73.90
68177;DHT22;56478;50.982;7.032;2022-08-19T01:32:44;19.85;74.00
68177;DHT22;56478;50.982;7.032;2022-08-19T01:35:10;19.85;74.05
68177;DHT22;56478;50.982;7.032;2022-08-19T01:37:43;19.82;73.83
68177;DHT22;56478;50.982;7.032;2022-08-19T01:40:09;19.82;74.21
68177;DHT22;56478;50.982;7.032;2022-08-19T01:42:34;19.82;74.60
68177;DHT22;56478;50.982;7.032;2022-08-19T01:45:00;19.79;74.93
68177;DHT22;56478;50.982;7.032;2022-08-19T01:47:25;19.72;75.15
68177;DHT22;56478;50.982;7.032;2022-08-19T01:49:51;19.77;75.23
68177;DHT22;56478;50.982;7.032;2022-08-19T01:52:16;19.70;75.34
68177;DHT22;56478;50.982;7.032;2022-08-19T01:54:41;19.69;75.37
68177;DHT22;56478;50.982;7.032;2022-08-19T01:57:08;19.66;75.31
68177;DHT22;56478;50.982;7.032;2022-08-19T01:59:35;19.63;75.10
68177;DHT22;56478;50.982;7.032;2022-08-19T02:02:04;19.63;75.13
68177;DHT22;56478;50.982;7.032;2022-08-19T02:04:32;19.61;75.03
68177;DHT22;56478;50.982;7.032;2022-08-19T02:06:57;19.58;75.36
68177;DHT22;56478;50.982;7.032;2022-08-19T02:09:22;19.57;75.34
68177;DHT22;56478;50.982;7.032;2022-08-19T02:11:48;19.58;75.38
68177;DHT22;56478;50.982;7.032;2022-08-19T02:14:13;19.52;75.60
68177;DHT22;56478;50.982;7.032;2022-08-19T02:16:39;19.59;75.77
68177;DHT22;56478;50.982;7.032;2022-08-19T02:19:05;19.59;75.80
68177;DHT22;56478;50.982;7.032;2022-08-19T02:21:30;19.57;75.78
68177;DHT22;56478;50.982;7.032;2022-08-19T02:23:56;19.55;75.99
68177;DHT22;56478;50.982;7.032;2022-08-19T02:26:21;19.58;76.10
68177;DHT22;56478;50.982;7.032;2022-08-19T02:28:47;19.55;75.93
68177;DHT22;56478;50.982;7.032;2022-08-19T02:31:15;19.57;76.13
68177;DHT22;56478;50.982;7.032;2022-08-19T02:33:40;19.57;75.95
68177;DHT22;56478;50.982;7.032;2022-08-19T02:36:06;19.54;75.86
68177;DHT22;56478;50.982;7.032;2022-08-19T02:38:32;19.51;75.77
68177;DHT22;56478;50.982;7.032;2022-08-19T02:41:03;19.48;75.94
68177;DHT22;56478;50.982;7.032;2022-08-19T02:43:30;19.52;75.76
68177;DHT22;56478;50.982;7.032;2022-08-19T02:45:55;19.51;75.76
68177;DHT22;56478;50.982;7.032;2022-08-19T02:48:22;19.47;75.87
68177;DHT22;56478;50.982;7.032;2022-08-19T02:50:48;19.41;76.21
68177;DHT22;56478;50.982;7.032;2022-08-19T02:53:19;19.41;76.02
68177;DHT22;56478;50.982;7.032;2022-08-19T02:55:47;19.39;76.04
68177;DHT22;56478;50.982;7.032;2022-08-19T02:58:13;19.45;75.74
68177;DHT22;56478;50.982;7.032;2022-08-19T03:00:46;19.44;75.83
68177;DHT22;56478;50.982;7.032;2022-08-19T03:03:11;19.42;76.04
68177;DHT22;56478;50.982;7.032;2022-08-19T03:05:36;19.41;76.08
68177;DHT22;56478;50.982;7.032;2022-08-19T03:08:02;19.38;76.08
68177;DHT22;56478;50.982;7.032;2022-08-19T03:10:30;19.38;76.00
68177;DHT22;56478;50.982;7.032;2022-08-19T03:12:56;19.38;76.08
68177;DHT22;56478;50.982;7.032;2022-08-19T03:15:21;19.35;76.13
68177;DHT22;56478;50.982;7.032;2022-08-19T03:17:46;19.31;76.09
68177;DHT22;56478;50.982;7.032;2022-08-19T03:20:12;19.31;75.86
68177;DHT22;56478;50.982;7.032;2022-08-19T03:22:37;19.35;76.00
68177;DHT22;56478;50.982;7.032;2022-08-19T03:25:03;19.31;76.09
68177;DHT22;56478;50.982;7.032;2022-08-19T03:27:28;19.27;76.03
68177;DHT22;56478;50.982;7.032;2022-08-19T03:29:54;19.28;75.78
68177;DHT22;56478;50.982;7.032;2022-08-19T03:32:20;19.27;75.64
68177;DHT22;56478;50.982;7.032;2022-08-19T03:34:46;19.24;75.77
68177;DHT22;56478;50.982;7.032;2022-08-19T03:37:12;19.18;75.98
68177;DHT22;56478;50.982;7.032;2022-08-19T03:39:38;19.20;76.16
68177;DHT22;56478;50.982;7.032;2022-08-19T03:42:03;19.18;76.21
68177;DHT22;56478;50.982;7.032;2022-08-19T03:44:29;19.17;76.36
68177;DHT22;56478;50.982;7.032;2022-08-19T03:46:56;19.15;76.55
68177;DHT22;56478;50.982;7.032;2022-08-19T03:49:23;19.13;76.97
68177;DHT22;56478;50.982;7.032;2022-08-19T03:51:49;19.10;76.75
68177;DHT22;56478;50.982;7.032;2022-08-19T03:54:16;19.11;76.77
68177;DHT22;56478;50.982;7.032;2022-08-19T03:56:42;19.10;76.77
68177;DHT22;56478;50.982;7.032;2022-08-19T03:59:09;19.10;76.68
68177;DHT22;56478;50.982;7.032;2022-08-19T04:01:35;19.08;76.81
68177;DHT22;56478;50.982;7.032;2022-08-19T04:04:01;19.03;76.82
68177;DHT22;56478;50.982;7.032;2022-08-19T04:06:28;19.03;76.77
68177;DHT22;56478;50.982;7.032;2022-08-19T04:08:54;19.03;76.92
68177;DHT22;56478;50.982;7.032;2022-08-19T04:11:21;19.02;76.83
68177;DHT22;56478;50.982;7.032;2022-08-19T04:13:47;18.95;76.97
68177;DHT22;56478;50.982;7.032;2022-08-19T04:16:12;19.02;77.07
68177;DHT22;56478;50.982;7.032;2022-08-19T04:18:38;19.04;76.83
68177;DHT22;56478;50.982;7.032;2022-08-19T04:21:05;19.08;76.37
68177;DHT22;56478;50.982;7.032;2022-08-19T04:23:31;19.07;76.54
68177;DHT22;56478;50.982;7.032;2022-08-19T04:25:57;19.17;76.21
68177;DHT22;56478;50.982;7.032;2022-08-19T04:28:23;19.17;76.19
68177;DHT22;56478;50.982;7.032;2022-08-19T04:30:50;19.20;75.84
68177;DHT22;56478;50.982;7.032;2022-08-19T04:33:17;19.18;75.95
68177;DHT22;56478;50.982;7.032;2022-08-19T04:35:44;19.21;75.64
68177;DHT22;56478;50.982;7.032;2022-08-19T04:38:10;19.18;75.82
68177;DHT22;56478;50.982;7.032;2022-08-19T04:40:42;19.15;75.78
68177;DHT22;56478;50.982;7.032;2022-08-19T04:43:26;19.15;75.85
68177;DHT22;56478;50.982;7.032;2022-08-19T04:45:52;19.13;75.53
68177;DHT22;56478;50.982;7.032;2022-08-19T04:48:17;19.08;75.40
68177;DHT22;56478;50.982;7.032;2022-08-19T04:50:54;19.06;75.84
68177;DHT22;56478;50.982;7.032;2022-08-19T04:53:26;19.00;75.92
68177;DHT22;56478;50.982;7.032;2022-08-19T04:55:55;19.02;76.41
68177;DHT22;56478;50.982;7.032;2022-08-19T04:58:21;19.00;75.90
68177;DHT22;56478;50.982;7.032;2022-08-19T05:00:47;19.02;76.28
68177;DHT22;56478;50.982;7.032;2022-08-19T05:03:12;19.08;76.18
68177;DHT22;56478;50.982;7.032;2022-08-19T05:05:40;19.11;76.25
68177;DHT22;56478;50.982;7.032;2022-08-19T05:08:06;19.10;76.44
68177;DHT22;56478;50.982;7.032;2022-08-19T05:10:34;19.21;76.17
68177;DHT22;56478;50.982;7.032;2022-08-19T05:13:00;19.15;76.38
68177;DHT22;56478;50.982;7.032;2022-08-19T05:15:25;19.24;76.16
68177;DHT22;56478;50.982;7.032;2022-08-19T05:17:51;19.27;75.96
68177;DHT22;56478;50.982;7.032;2022-08-19T05:20:37;19.30;75.67
68177;DHT22;56478;50.982;7.032;2022-08-19T05:23:21;19.35;75.72
68177;DHT22;56478;50.982;7.032;2022-08-19T05:25:46;19.44;75.93
68177;DHT22;56478;50.982;7.032;2022-08-19T05:28:11;19.48;75.71
68177;DHT22;56478;50.982;7.032;2022-08-19T05:30:37;19.47;75.96
68177;DHT22;56478;50.982;7.032;2022-08-19T05:33:02;19.49;75.98
68177;DHT22;56478;50.982;7.032;2022-08-19T05:35:28;19.49;75.64
68177;DHT22;56478;50.982;7.032;2022-08-19T05:37:53;19.58;76.05
68177;DHT22;56478;50.982;7.032;2022-08-19T05:40:19;19.57;75.89
68177;DHT22;56478;50.982;7.032;2022-08-19T05:42:45;19.65;75.24
68177;DHT22;56478;50.982;7.032;2022-08-19T05:45:11;19.69;75.66
68177;DHT22;56478;50.982;7.032;2022-08-19T05:47:36;19.75;75.56
68177;DHT22;56478;50.982;7.032;2022-08-19T05:50:02;19.80;75.75
68177;DHT22;56478;50.982;7.032;2022-08-19T05:52:28;19.86;76.04
68177;DHT22;56478;50.982;7.032;2022-08-19T05:54:53;19.92;76.32
68177;DHT22;56478;50.982;7.032;2022-08-19T05:57:20;20.01;76.23
68177;DHT22;56478;50.982;7.032;2022-08-19T05:59:46;20.03;76.71
68177;DHT22;56478;50.982;7.032;2022-08-19T06:02:13;20.10;76.86
68177;DHT22;56478;50.982;7.032;2022-08-19T06:04:39;20.18;77.01
68177;DHT22;56478;50.982;7.032;2022-08-19T06:07:07;20.28;77.07
68177;DHT22;56478;50.982;7.032;2022-08-19T06:09:33;20.39;76.98
68177;DHT22;56478;50.982;7.032;2022-08-19T06:11:58;20.52;76.89
68177;DHT22;56478;50.982;7.032;2022-08-19T06:14:26;20.65;76.35
68177;DHT22;56478;50.982;7.032;2022-08-19T06:16:52;20.79;76.24
68177;DHT22;56478;50.982;7.032;2022-08-19T06:19:18;20.94;75.43
68177;DHT22;56478;50.982;7.032;2022-08-19T06:21:45;21.08;75.23
68177;DHT22;56478;50.982;7.032;2022-08-19T06:24:12;21.34;74.04
68177;DHT22;56478;50.982;7.032;2022-08-19T06:26:38;21.43;73.73
68177;DHT22;56478;50.982;7.032;2022-08-19T06:29:04;21.63;73.37
68177;DHT22;56478;50.982;7.032;2022-08-19T06:31:31;21.90;72.38
68177;DHT22;56478;50.982;7.032;2022-08-19T06:33:58;22.48;70.77
68177;DHT22;56478;50.982;7.032;2022-08-19T06:36:24;22.87;69.36
68177;DHT22;56478;50.982;7.032;2022-08-19T06:38:57;23.08;68.21
68177;DHT22;56478;50.982;7.032;2022-08-19T06:41:23;23.25;67.48
68177;DHT22;56478;50.982;7.032;2022-08-19T06:43:48;23.26;67.73
68177;DHT22;56478;50.982;7.032;2022-08-19T06:46:14;23.28;67.07
68177;DHT22;56478;50.982;7.032;2022-08-19T06:48:40;23.51;66.81
68177;DHT22;56478;50.982;7.032;2022-08-19T06:51:06;23.81;66.31
68177;DHT22;56478;50.982;7.032;2022-08-19T06:53:32;24.39;64.68
68177;DHT22;56478;50.982;7.032;2022-08-19T06:55:57;25.04;62.18
68177;DHT22;56478;50.982;7.032;2022-08-19T06:58:27;25.70;60.36
68177;DHT22;56478;50.982;7.032;2022-08-19T07:00:52;26.79;57.31
68177;DHT22;56478;50.982;7.032;2022-08-19T07:03:17;27.36;55.13
68177;DHT22;56478;50.982;7.032;2022-08-19T07:05:43;27.50;54.56
68177;DHT22;56478;50.982;7.032;2022-08-19T07:08:08;27.28;54.82
68177;DHT22;56478;50.982;7.032;2022-08-19T07:10:34;27.19;55.34
68177;DHT22;56478;50.982;7.032;2022-08-19T07:13:02;27.78;54.01
68177;DHT22;56478;50.982;7.032;2022-08-19T07:15:27;28.77;51.71
68177;DHT22;56478;50.982;7.032;2022-08-19T07:17:52;29.49;49.59
68177;DHT22;56478;50.982;7.032;2022-08-19T07:20:18;29.89;48.66
68177;DHT22;56478;50.982;7.032;2022-08-19T07:22:43;30.95;46.93
68177;DHT22;56478;50.982;7.032;2022-08-19T07:25:10;30.92;46.11
68177;DHT22;56478;50.982;7.032;2022-08-19T07:27:38;30.66;46.88
68177;DHT22;56478;50.982;7.032;2022-08-19T07:30:03;30.23;47.90
68177;DHT22;56478;50.982;7.032;2022-08-19T07:32:30;30.15;47.68
68177;DHT22;56478;50.982;7.032;2022-08-19T07:34:55;30.52;46.58
68177;DHT22;56478;50.982;7.032;2022-08-19T07:37:21;31.46;44.83
68177;DHT22;56478;50.982;7.032;2022-08-19T07:39:46;31.56;45.03
68177;DHT22;56478;50.982;7.032;2022-08-19T07:42:12;31.30;45.44
68177;DHT22;56478;50.982;7.032;2022-08-19T07:44:38;32.14;43.40
68177;DHT22;56478;50.982;7.032;2022-08-19T07:47:04;30.90;45.71
68177;DHT22;56478;50.982;7.032;2022-08-19T07:49:30;30.96;46.16
68177;DHT22;56478;50.982;7.032;2022-08-19T07:54:21;31.32;45.14
68177;DHT22;56478;50.982;7.032;2022-08-19T07:56:47;32.61;42.08
68177;DHT22;56478;50.982;7.032;2022-08-19T07:59:12;33.37;41.00
68177;DHT22;56478;50.982;7.032;2022-08-19T08:01:38;33.33;40.39
68177;DHT22;56478;50.982;7.032;2022-08-19T08:04:05;34.68;38.35
68177;DHT22;56478;50.982;7.032;2022-08-19T08:06:49;35.04;37.00
68177;DHT22;56478;50.982;7.032;2022-08-19T08:09:35;35.14;36.57
68177;DHT22;56478;50.982;7.032;2022-08-19T08:12:04;34.67;36.99
68177;DHT22;56478;50.982;7.032;2022-08-19T08:14:42;33.35;39.98
68177;DHT22;56478;50.982;7.032;2022-08-19T08:17:09;32.44;41.20
68177;DHT22;56478;50.982;7.032;2022-08-19T08:19:35;31.76;42.80
68177;DHT22;56478;50.982;7.032;2022-08-19T08:22:01;31.47;43.62
68177;DHT22;56478;50.982;7.032;2022-08-19T08:24:27;30.64;45.15
68177;DHT22;56478;50.982;7.032;2022-08-19T08:26:53;29.73;47.33
68177;DHT22;56478;50.982;7.032;2022-08-19T08:29:18;29.05;49.16
68177;DHT22;56478;50.982;7.032;2022-08-19T08:31:44;28.70;50.34
68177;DHT22;56478;50.982;7.032;2022-08-19T08:34:10;28.63;49.75
68177;DHT22;56478;50.982;7.032;2022-08-19T08:36:37;28.94;48.71
68177;DHT22;56478;50.982;7.032;2022-08-19T08:39:06;29.61;48.92
68177;DHT22;56478;50.982;7.032;2022-08-19T08:41:36;29.69;48.22
68177;DHT22;56478;50.982;7.032;2022-08-19T08:44:06;30.18;47.56
68177;DHT22;56478;50.982;7.032;2022-08-19T08:46:46;30.53;46.69
68177;DHT22;56478;50.982;7.032;2022-08-19T08:52:32;31.54;44.59
68177;DHT22;56478;50.982;7.032;2022-08-19T08:54:39;33.77;39.71
68177;DHT22;56478;50.982;7.032;2022-08-19T08:57:07;34.92;38.96
68177;DHT22;56478;50.982;7.032;2022-08-19T08:59:36;35.78;37.31
68177;DHT22;56478;50.982;7.032;2022-08-19T09:02:02;37.18;34.39
68177;DHT22;56478;50.982;7.032;2022-08-19T09:04:27;36.21;35.98
68177;DHT22;56478;50.982;7.032;2022-08-19T09:09:34;37.60;33.13
68177;DHT22;56478;50.982;7.032;2022-08-19T09:15:07;36.11;36.68
68177;DHT22;56478;50.982;7.032;2022-08-19T09:17:34;35.90;35.91
68177;DHT22;56478;50.982;7.032;2022-08-19T09:20:11;35.16;38.07
68177;DHT22;56478;50.982;7.032;2022-08-19T09:22:40;34.68;37.46
68177;DHT22;56478;50.982;7.032;2022-08-19T09:25:06;34.46;39.53
68177;DHT22;56478;50.982;7.032;2022-08-19T09:27:32;33.42;41.96
68177;DHT22;56478;50.982;7.032;2022-08-19T09:29:57;32.87;43.46
68177;DHT22;56478;50.982;7.032;2022-08-19T09:32:23;34.26;39.16
68177;DHT22;56478;50.982;7.032;2022-08-19T09:34:49;34.05;41.66
68177;DHT22;56478;50.982;7.032;2022-08-19T09:37:14;33.08;41.73
68177;DHT22;56478;50.982;7.032;2022-08-19T09:39:40;32.64;43.08
68177;DHT22;56478;50.982;7.032;2022-08-19T09:42:06;34.52;39.33
68177;DHT22;56478;50.982;7.032;2022-08-19T09:44:36;34.50;38.61
68177;DHT22;56478;50.982;7.032;2022-08-19T09:47:02;34.04;39.47
68177;DHT22;56478;50.982;7.032;2022-08-19T09:49:28;35.67;38.01
68177;DHT22;56478;50.982;7.032;2022-08-19T09:51:53;35.49;36.89
68177;DHT22;56478;50.982;7.032;2022-08-19T09:54:21;35.11;37.09
68177;DHT22;56478;50.982;7.032;2022-08-19T09:56:46;35.11;37.51
68177;DHT22;56478;50.982;7.032;2022-08-19T09:59:12;37.13;34.02
68177;DHT22;56478;50.982;7.032;2022-08-19T10:01:37;36.87;34.20
68177;DHT22;56478;50.982;7.032;2022-08-19T10:04:02;38.49;29.71
68177;DHT22;56478;50.982;7.032;2022-08-19T10:06:33;38.48;32.40
68177;DHT22;56478;50.982;7.032;2022-08-19T10:08:58;38.71;31.83
68177;DHT22;56478;50.982;7.032;2022-08-19T10:11:24;38.45;29.78
68177;DHT22;56478;50.982;7.032;2022-08-19T10:13:49;37.22;32.61
68177;DHT22;56478;50.982;7.032;2022-08-19T10:16:16;38.24;31.21
68177;DHT22;56478;50.982;7.032;2022-08-19T10:18:42;39.04;30.17
68177;DHT22;56478;50.982;7.032;2022-08-19T10:21:11;39.24;29.69
68177;DHT22;56478;50.982;7.032;2022-08-19T10:23:37;39.14;29.31
68177;DHT22;56478;50.982;7.032;2022-08-19T10:26:04;39.87;29.89
68177;DHT22;56478;50.982;7.032;2022-08-19T10:28:31;40.34;28.93
68177;DHT22;56478;50.982;7.032;2022-08-19T10:30:56;39.83;28.44
68177;DHT22;56478;50.982;7.032;2022-08-19T10:33:22;40.70;27.69
68177;DHT22;56478;50.982;7.032;2022-08-19T10:35:47;41.11;24.73
68177;DHT22;56478;50.982;7.032;2022-08-19T10:38:14;39.43;29.41
68177;DHT22;56478;50.982;7.032;2022-08-19T10:40:39;39.22;30.03
68177;DHT22;56478;50.982;7.032;2022-08-19T10:43:05;38.53;29.87
68177;DHT22;56478;50.982;7.032;2022-08-19T10:45:30;40.52;25.90
68177;DHT22;56478;50.982;7.032;2022-08-19T10:47:55;40.94;27.14
68177;DHT22;56478;50.982;7.032;2022-08-19T10:50:21;40.51;27.25
68177;DHT22;56478;50.982;7.032;2022-08-19T10:53:06;38.79;29.62
68177;DHT22;56478;50.982;7.032;2022-08-19T10:55:33;39.10;28.56
68177;DHT22;56478;50.982;7.032;2022-08-19T10:58:18;37.58;31.39
68177;DHT22;56478;50.982;7.032;2022-08-19T11:00:54;36.70;32.63
68177;DHT22;56478;50.982;7.032;2022-08-19T11:03:20;36.52;31.38
68177;DHT22;56478;50.982;7.032;2022-08-19T11:05:45;36.12;33.14
68177;DHT22;56478;50.982;7.032;2022-08-19T11:08:11;35.66;33.99
68177;DHT22;56478;50.982;7.032;2022-08-19T11:10:36;35.98;32.95
68177;DHT22;56478;50.982;7.032;2022-08-19T11:13:02;35.90;34.57
68177;DHT22;56478;50.982;7.032;2022-08-19T11:15:28;36.21;34.13
68177;DHT22;56478;50.982;7.032;2022-08-19T11:17:53;36.14;33.71
68177;DHT22;56478;50.982;7.032;2022-08-19T11:20:19;35.91;33.79
68177;DHT22;56478;50.982;7.032;2022-08-19T11:22:45;35.98;33.80
68177;DHT22;56478;50.982;7.032;2022-08-19T11:25:10;35.01;35.73
68177;DHT22;56478;50.982;7.032;2022-08-19T11:27:42;35.38;34.58
68177;DHT22;56478;50.982;7.032;2022-08-19T11:30:09;35.36;34.98
68177;DHT22;56478;50.982;7.032;2022-08-19T11:32:35;34.35;36.03
68177;DHT22;56478;50.982;7.032;2022-08-19T11:35:01;34.19;34.67
68177;DHT22;56478;50.982;7.032;2022-08-19T11:37:26;33.52;36.56
68177;DHT22;56478;50.982;7.032;2022-08-19T11:39:52;33.69;36.78
68177;DHT22;56478;50.982;7.032;2022-08-19T11:42:17;33.15;36.52
68177;DHT22;56478;50.982;7.032;2022-08-19T11:45:01;33.56;36.66
68177;DHT22;56478;50.982;7.032;2022-08-19T11:47:28;33.60;38.52
68177;DHT22;56478;50.982;7.032;2022-08-19T11:49:55;33.49;37.46
68177;DHT22;56478;50.982;7.032;2022-08-19T11:52:20;33.41;37.44
68177;DHT22;56478;50.982;7.032;2022-08-19T11:54:46;33.94;35.56
68177;DHT22;56478;50.982;7.032;2022-08-19T11:57:11;34.09;35.83
68177;DHT22;56478;50.982;7.032;2022-08-19T11:59:36;33.46;36.79
68177;DHT22;56478;50.982;7.032;2022-08-19T12:02:01;33.22;37.60
68177;DHT22;56478;50.982;7.032;2022-08-19T12:04:27;33.00;37.36
68177;DHT22;56478;50.982;7.032;2022-08-19T12:06:52;32.36;38.46
68177;DHT22;56478;50.982;7.032;2022-08-19T12:09:18;32.63;37.55
68177;DHT22;56478;50.982;7.032;2022-08-19T12:11:44;32.18;38.08
68177;DHT22;56478;50.982;7.032;2022-08-19T12:14:10;32.33;37.50
68177;DHT22;56478;50.982;7.032;2022-08-19T12:16:35;32.36;37.23
68177;DHT22;56478;50.982;7.032;2022-08-19T12:19:01;32.57;35.70
68177;DHT22;56478;50.982;7.032;2022-08-19T12:21:29;32.73;37.37
68177;DHT22;56478;50.982;7.032;2022-08-19T12:23:55;32.67;37.31
68177;DHT22;56478;50.982;7.032;2022-08-19T12:26:21;33.15;36.91
68177;DHT22;56478;50.982;7.032;2022-08-19T12:28:46;33.01;37.43
68177;DHT22;56478;50.982;7.032;2022-08-19T12:31:13;32.91;35.54
68177;DHT22;56478;50.982;7.032;2022-08-19T12:33:39;33.05;34.89
68177;DHT22;56478;50.982;7.032;2022-08-19T12:36:05;33.15;35.18
68177;DHT22;56478;50.982;7.032;2022-08-19T12:38:31;32.77;36.59
68177;DHT22;56478;50.982;7.032;2022-08-19T12:40:57;32.74;36.95
68177;DHT22;56478;50.982;7.032;2022-08-19T12:43:22;32.66;37.08
68177;DHT22;56478;50.982;7.032;2022-08-19T12:45:48;33.00;35.06
68177;DHT22;56478;50.982;7.032;2022-08-19T12:48:13;33.21;35.23
68177;DHT22;56478;50.982;7.032;2022-08-19T12:50:39;33.09;36.51
68177;DHT22;56478;50.982;7.032;2022-08-19T12:53:05;32.56;37.11
68177;DHT22;56478;50.982;7.032;2022-08-19T12:55:30;32.50;37.75
68177;DHT22;56478;50.982;7.032;2022-08-19T12:57:56;32.47;37.57
68177;DHT22;56478;50.982;7.032;2022-08-19T13:00:22;32.14;38.81
68177;DHT22;56478;50.982;7.032;2022-08-19T13:02:48;31.81;38.56
68177;DHT22;56478;50.982;7.032;2022-08-19T13:05:19;31.70;38.57
68177;DHT22;56478;50.982;7.032;2022-08-19T13:07:46;31.43;39.14
68177;DHT22;56478;50.982;7.032;2022-08-19T13:10:13;31.54;38.83
68177;DHT22;56478;50.982;7.032;2022-08-19T13:12:40;31.56;38.11
68177;DHT22;56478;50.982;7.032;2022-08-19T13:15:06;31.57;38.21
68177;DHT22;56478;50.982;7.032;2022-08-19T13:17:33;31.84;37.37
68177;DHT22;56478;50.982;7.032;2022-08-19T13:19:58;31.81;38.61
68177;DHT22;56478;50.982;7.032;2022-08-19T13:22:23;32.14;36.30
68177;DHT22;56478;50.982;7.032;2022-08-19T13:24:50;32.05;38.46
68177;DHT22;56478;50.982;7.032;2022-08-19T13:27:15;32.02;38.15
68177;DHT22;56478;50.982;7.032;2022-08-19T13:29:41;31.85;36.97
68177;DHT22;56478;50.982;7.032;2022-08-19T13:32:25;32.08;38.26
68177;DHT22;56478;50.982;7.032;2022-08-19T13:35:09;31.88;38.27
68177;DHT22;56478;50.982;7.032;2022-08-19T13:37:34;32.21;35.78
68177;DHT22;56478;50.982;7.032;2022-08-19T13:40:18;32.08;36.04
68177;DHT22;56478;50.982;7.032;2022-08-19T13:42:45;31.70;36.94
68177;DHT22;56478;50.982;7.032;2022-08-19T13:45:12;31.22;37.09
68177;DHT22;56478;50.982;7.032;2022-08-19T13:47:38;31.01;37.72
68177;DHT22;56478;50.982;7.032;2022-08-19T13:50:13;31.08;37.19
68177;DHT22;56478;50.982;7.032;2022-08-19T13:52:39;31.14;37.95
68177;DHT22;56478;50.982;7.032;2022-08-19T13:55:05;31.11;36.55
68177;DHT22;56478;50.982;7.032;2022-08-19T13:57:31;30.90;37.68
68177;DHT22;56478;50.982;7.032;2022-08-19T13:59:59;30.96;36.72
68177;DHT22;56478;50.982;7.032;2022-08-19T14:02:25;31.05;36.08
68177;DHT22;56478;50.982;7.032;2022-08-19T14:04:51;31.03;38.08
68177;DHT22;56478;50.982;7.032;2022-08-19T14:07:17;30.92;36.49
68177;DHT22;56478;50.982;7.032;2022-08-19T14:09:42;30.88;37.68
68177;DHT22;56478;50.982;7.032;2022-08-19T14:12:07;30.70;37.22
68177;DHT22;56478;50.982;7.032;2022-08-19T14:14:37;30.68;36.49
68177;DHT22;56478;50.982;7.032;2022-08-19T14:17:05;30.64;37.60
68177;DHT22;56478;50.982;7.032;2022-08-19T14:19:31;30.52;36.61
68177;DHT22;56478;50.982;7.032;2022-08-19T14:21:57;30.37;36.95
68177;DHT22;56478;50.982;7.032;2022-08-19T14:24:22;30.28;37.07
68177;DHT22;56478;50.982;7.032;2022-08-19T14:26:48;30.46;35.83
68177;DHT22;56478;50.982;7.032;2022-08-19T14:29:13;30.39;38.49
68177;DHT22;56478;50.982;7.032;2022-08-19T14:31:39;30.39;37.33
68177;DHT22;56478;50.982;7.032;2022-08-19T14:34:05;30.47;36.92
68177;DHT22;56478;50.982;7.032;2022-08-19T14:36:31;30.53;36.87
68177;DHT22;56478;50.982;7.032;2022-08-19T14:38:59;30.52;36.97
68177;DHT22;56478;50.982;7.032;2022-08-19T14:41:26;30.55;37.57
68177;DHT22;56478;50.982;7.032;2022-08-19T14:43:52;30.52;38.33
68177;DHT22;56478;50.982;7.032;2022-08-19T14:46:22;30.46;37.71
68177;DHT22;56478;50.982;7.032;2022-08-19T14:48:48;30.29;38.40
68177;DHT22;56478;50.982;7.032;2022-08-19T14:51:14;30.28;38.43
68177;DHT22;56478;50.982;7.032;2022-08-19T14:53:40;30.23;37.34
68177;DHT22;56478;50.982;7.032;2022-08-19T14:56:09;30.30;36.93
68177;DHT22;56478;50.982;7.032;2022-08-19T14:58:36;30.30;38.29
68177;DHT22;56478;50.982;7.032;2022-08-19T15:01:01;30.35;37.80
68177;DHT22;56478;50.982;7.032;2022-08-19T15:03:28;30.32;36.65
68177;DHT22;56478;50.982;7.032;2022-08-19T15:05:54;30.32;36.78
68177;DHT22;56478;50.982;7.032;2022-08-19T15:08:20;30.22;38.30
68177;DHT22;56478;50.982;7.032;2022-08-19T15:10:47;29.82;37.60
68177;DHT22;56478;50.982;7.032;2022-08-19T15:13:12;29.80;37.80
68177;DHT22;56478;50.982;7.032;2022-08-19T15:15:38;29.77;37.85
68177;DHT22;56478;50.982;7.032;2022-08-19T15:18:04;29.78;37.32
68177;DHT22;56478;50.982;7.032;2022-08-19T15:20:30;29.84;36.65
68177;DHT22;56478;50.982;7.032;2022-08-19T15:22:56;29.73;37.01
68177;DHT22;56478;50.982;7.032;2022-08-19T15:25:22;29.84;36.27
68177;DHT22;56478;50.982;7.032;2022-08-19T15:27:47;29.88;34.67
68177;DHT22;56478;50.982;7.032;2022-08-19T15:30:18;29.77;35.73
68177;DHT22;56478;50.982;7.032;2022-08-19T15:32:43;29.77;37.32
68177;DHT22;56478;50.982;7.032;2022-08-19T15:35:08;29.97;35.50
68177;DHT22;56478;50.982;7.032;2022-08-19T15:37:34;29.89;38.50
68177;DHT22;56478;50.982;7.032;2022-08-19T15:39:59;29.73;37.06